sensor_id;sensor_type;location;lat;lon;timestamp;P1;durP1;ratioP1;P2;durP2;ratioP2
7017;SDS011;3549;42.162;24.726;2023-04-01T00:00:52;25.70;;;13.13;;
7017;SDS011;3549;42.162;24.726;2023-04-01T00:03:18;21.30;;;13.17;;
7017;SDS011;3549;42.162;24.726;2023-04-01T00:05:45;19.80;;;12.90;;
7017;SDS011;3549;42.162;24.726;2023-04-01T00:08:11;22.63;;;13.20;;
7017;SDS011;3549;42.162;24.726;2023-04-01T00:10:36;23.80;;;13.73;;
7017;SDS011;3549;42.162;24.726;2023-04-01T00:13:02;23.83;;;14.50;;
7017;SDS011;3549;42.162;24.726;2023-04-01T00:15:27;29.10;;;15.63;;
7017;SDS011;3549;42.162;24.726;2023-04-01T00:17:53;28.83;;;14.93;;
7017;SDS011;3549;42.162;24.726;2023-04-01T00:20:19;26.90;;;14.37;;
7017;SDS011;3549;42.162;24.726;2023-04-01T00:22:45;26.73;;;13.93;;
7017;SDS011;3549;42.162;24.726;2023-04-01T00:25:10;23.90;;;13.40;;
7017;SDS011;3549;42.162;24.726;2023-04-01T00:27:36;22.07;;;13.33;;
7017;SDS011;3549;42.162;24.726;2023-04-01T00:30:02;22.87;;;13.37;;
7017;SDS011;3549;42.162;24.726;2023-04-01T00:32:28;23.70;;;14.10;;
7017;SDS011;3549;42.162;24.726;2023-04-01T00:34:53;23.83;;;13.20;;
7017;SDS011;3549;42.162;24.726;2023-04-01T00:37:19;23.13;;;13.13;;
7017;SDS011;3549;42.162;24.726;2023-04-01T00:39:46;21.70;;;13.87;;
7017;SDS011;3549;42.162;24.726;2023-04-01T00:42:12;25.77;;;13.53;;
7017;SDS011;3549;42.162;24.726;2023-04-01T00:44:39;25.00;;;14.10;;
7017;SDS011;3549;42.162;24.726;2023-04-01T00:47:05;22.10;;;13.70;;
7017;SDS011;3549;42.162;24.726;2023-04-01T00:49:31;21.17;;;12.40;;
7017;SDS011;3549;42.162;24.726;2023-04-01T00:52:02;22.90;;;12.50;;
7017;SDS011;3549;42.162;24.726;2023-04-01T00:54:29;23.47;;;12.97;;
7017;SDS011;3549;42.162;24.726;2023-04-01T00:59:27;23.43;;;13.53;;
7017;SDS011;3549;42.162;24.726;2023-04-01T01:01:57;19.90;;;13.00;;
7017;SDS011;3549;42.162;24.726;2023-04-01T01:04:23;21.63;;;13.40;;
7017;SDS011;3549;42.162;24.726;2023-04-01T01:06:54;21.90;;;13.20;;
7017;SDS011;3549;42.162;24.726;2023-04-01T01:12:19;24.17;;;13.50;;
7017;SDS011;3549;42.162;24.726;2023-04-01T01:14:53;25.50;;;14.27;;
7017;SDS011;3549;42.162;24.726;2023-04-01T01:17:27;22.17;;;13.47;;
7017;SDS011;3549;42.162;24.726;2023-04-01T01:20:14;32.77;;;16.73;;
7017;SDS011;3549;42.162;24.726;2023-04-01T01:36:43;22.40;;;12.33;;
7017;SDS011;3549;42.162;24.726;2023-04-01T01:39:11;19.87;;;11.53;;
7017;SDS011;3549;42.162;24.726;2023-04-01T01:41:39;20.23;;;12.13;;
7017;SDS011;3549;42.162;24.726;2023-04-01T01:44:08;22.13;;;12.47;;
7017;SDS011;3549;42.162;24.726;2023-04-01T01:46:36;23.20;;;12.73;;
7017;SDS011;3549;42.162;24.726;2023-04-01T01:49:04;22.03;;;12.23;;
7017;SDS011;3549;42.162;24.726;2023-04-01T01:51:35;25.37;;;13.43;;
7017;SDS011;3549;42.162;24.726;2023-04-01T01:54:01;24.57;;;12.77;;
7017;SDS011;3549;42.162;24.726;2023-04-01T01:56:27;19.27;;;11.40;;
7017;SDS011;3549;42.162;24.726;2023-04-01T01:58:55;25.43;;;12.17;;
7017;SDS011;3549;42.162;24.726;2023-04-01T02:01:29;19.57;;;11.33;;
7017;SDS011;3549;42.162;24.726;2023-04-01T02:03:58;24.23;;;12.07;;
7017;SDS011;3549;42.162;24.726;2023-04-01T02:06:25;17.93;;;11.53;;
7017;SDS011;3549;42.162;24.726;2023-04-01T02:09:00;20.97;;;11.40;;
7017;SDS011;3549;42.162;24.726;2023-04-01T02:16:44;26.33;;;12.70;;
7017;SDS011;3549;42.162;24.726;2023-04-01T02:19:15;22.00;;;12.40;;
7017;SDS011;3549;42.162;24.726;2023-04-01T02:21:47;20.97;;;12.43;;
7017;SDS011;3549;42.162;24.726;2023-04-01T02:24:17;22.17;;;12.77;;
7017;SDS011;3549;42.162;24.726;2023-04-01T02:26:47;24.10;;;14.50;;
7017;SDS011;3549;42.162;24.726;2023-04-01T02:29:15;23.80;;;14.13;;
7017;SDS011;3549;42.162;24.726;2023-04-01T02:31:43;25.77;;;14.00;;
7017;SDS011;3549;42.162;24.726;2023-04-01T02:34:08;26.03;;;14.90;;
7017;SDS011;3549;42.162;24.726;2023-04-01T02:36:34;25.77;;;15.60;;
7017;SDS011;3549;42.162;24.726;2023-04-01T02:39:01;25.03;;;15.27;;
7017;SDS011;3549;42.162;24.726;2023-04-01T02:41:29;25.43;;;15.23;;
7017;SDS011;3549;42.162;24.726;2023-04-01T02:43:55;24.57;;;14.80;;
7017;SDS011;3549;42.162;24.726;2023-04-01T02:46:22;32.13;;;15.83;;
7017;SDS011;3549;42.162;24.726;2023-04-01T02:48:47;34.60;;;19.03;;
7017;SDS011;3549;42.162;24.726;2023-04-01T02:51:13;57.30;;;33.27;;
7017;SDS011;3549;42.162;24.726;2023-04-01T02:53:38;32.70;;;20.00;;
7017;SDS011;3549;42.162;24.726;2023-04-01T02:56:04;43.47;;;25.00;;
7017;SDS011;3549;42.162;24.726;2023-04-01T02:58:29;39.97;;;23.10;;
7017;SDS011;3549;42.162;24.726;2023-04-01T03:00:55;40.37;;;22.73;;
7017;SDS011;3549;42.162;24.726;2023-04-01T03:03:20;38.60;;;21.83;;
7017;SDS011;3549;42.162;24.726;2023-04-01T03:05:46;36.33;;;22.00;;
7017;SDS011;3549;42.162;24.726;2023-04-01T03:08:11;33.63;;;18.90;;
7017;SDS011;3549;42.162;24.726;2023-04-01T03:10:37;28.00;;;16.27;;
7017;SDS011;3549;42.162;24.726;2023-04-01T03:13:02;32.20;;;18.50;;
7017;SDS011;3549;42.162;24.726;2023-04-01T03:15:28;29.43;;;16.87;;
7017;SDS011;3549;42.162;24.726;2023-04-01T03:17:53;29.30;;;17.50;;
7017;SDS011;3549;42.162;24.726;2023-04-01T03:20:18;28.27;;;16.73;;
7017;SDS011;3549;42.162;24.726;2023-04-01T03:22:44;30.30;;;17.10;;
7017;SDS011;3549;42.162;24.726;2023-04-01T03:25:10;33.97;;;19.63;;
7017;SDS011;3549;42.162;24.726;2023-04-01T03:27:36;30.77;;;18.07;;
7017;SDS011;3549;42.162;24.726;2023-04-01T03:30:02;30.67;;;17.87;;
7017;SDS011;3549;42.162;24.726;2023-04-01T03:32:28;28.63;;;17.87;;
7017;SDS011;3549;42.162;24.726;2023-04-01T03:34:54;34.73;;;18.63;;
7017;SDS011;3549;42.162;24.726;2023-04-01T03:37:19;33.23;;;19.37;;
7017;SDS011;3549;42.162;24.726;2023-04-01T03:39:45;31.13;;;17.87;;
7017;SDS011;3549;42.162;24.726;2023-04-01T03:42:11;31.50;;;18.17;;
7017;SDS011;3549;42.162;24.726;2023-04-01T03:44:37;31.37;;;18.43;;
7017;SDS011;3549;42.162;24.726;2023-04-01T03:47:02;28.27;;;17.00;;
7017;SDS011;3549;42.162;24.726;2023-04-01T03:49:28;32.53;;;17.93;;
7017;SDS011;3549;42.162;24.726;2023-04-01T03:51:54;38.70;;;17.27;;
7017;SDS011;3549;42.162;24.726;2023-04-01T03:54:19;32.37;;;17.90;;
7017;SDS011;3549;42.162;24.726;2023-04-01T03:56:45;35.10;;;18.10;;
7017;SDS011;3549;42.162;24.726;2023-04-01T03:59:11;35.57;;;18.50;;
7017;SDS011;3549;42.162;24.726;2023-04-01T04:01:37;34.87;;;18.17;;
7017;SDS011;3549;42.162;24.726;2023-04-01T04:04:03;37.13;;;19.03;;
7017;SDS011;3549;42.162;24.726;2023-04-01T04:06:28;35.07;;;18.63;;
7017;SDS011;3549;42.162;24.726;2023-04-01T04:08:54;31.67;;;17.87;;
7017;SDS011;3549;42.162;24.726;2023-04-01T04:11:19;30.87;;;16.53;;
7017;SDS011;3549;42.162;24.726;2023-04-01T04:13:46;23.33;;;15.57;;
7017;SDS011;3549;42.162;24.726;2023-04-01T04:16:16;27.07;;;15.50;;
7017;SDS011;3549;42.162;24.726;2023-04-01T04:18:41;30.73;;;17.33;;
7017;SDS011;3549;42.162;24.726;2023-04-01T04:21:10;26.47;;;14.57;;
7017;SDS011;3549;42.162;24.726;2023-04-01T04:23:37;27.53;;;14.70;;
7017;SDS011;3549;42.162;24.726;2023-04-01T04:26:04;24.47;;;14.47;;
7017;SDS011;3549;42.162;24.726;2023-04-01T04:28:31;27.80;;;16.37;;
7017;SDS011;3549;42.162;24.726;2023-04-01T04:30:57;32.33;;;17.20;;
7017;SDS011;3549;42.162;24.726;2023-04-01T04:33:23;40.93;;;20.07;;
7017;SDS011;3549;42.162;24.726;2023-04-01T04:35:49;77.67;;;35.87;;
7017;SDS011;3549;42.162;24.726;2023-04-01T04:38:15;234.33;;;106.87;;
7017;SDS011;3549;42.162;24.726;2023-04-01T04:40:41;148.43;;;69.73;;
7017;SDS011;3549;42.162;24.726;2023-04-01T04:43:10;53.80;;;25.80;;
7017;SDS011;3549;42.162;24.726;2023-04-01T04:45:36;47.70;;;25.60;;
7017;SDS011;3549;42.162;24.726;2023-04-01T04:48:02;38.53;;;20.77;;
7017;SDS011;3549;42.162;24.726;2023-04-01T04:50:28;72.80;;;39.03;;
7017;SDS011;3549;42.162;24.726;2023-04-01T04:52:53;81.87;;;37.67;;
7017;SDS011;3549;42.162;24.726;2023-04-01T04:55:19;81.77;;;36.40;;
7017;SDS011;3549;42.162;24.726;2023-04-01T04:57:44;50.27;;;25.37;;
7017;SDS011;3549;42.162;24.726;2023-04-01T05:00:10;41.17;;;21.53;;
7017;SDS011;3549;42.162;24.726;2023-04-01T05:02:36;38.13;;;19.87;;
7017;SDS011;3549;42.162;24.726;2023-04-01T05:05:01;36.33;;;21.30;;
7017;SDS011;3549;42.162;24.726;2023-04-01T05:07:27;37.03;;;19.10;;
7017;SDS011;3549;42.162;24.726;2023-04-01T05:09:52;35.80;;;19.50;;
7017;SDS011;3549;42.162;24.726;2023-04-01T05:12:18;37.20;;;18.67;;
7017;SDS011;3549;42.162;24.726;2023-04-01T05:14:43;51.17;;;25.33;;
7017;SDS011;3549;42.162;24.726;2023-04-01T05:17:10;37.80;;;20.03;;
7017;SDS011;3549;42.162;24.726;2023-04-01T05:19:36;37.37;;;19.17;;
7017;SDS011;3549;42.162;24.726;2023-04-01T05:22:02;46.47;;;21.83;;
7017;SDS011;3549;42.162;24.726;2023-04-01T05:24:28;57.53;;;32.17;;
7017;SDS011;3549;42.162;24.726;2023-04-01T05:26:53;45.83;;;23.00;;
7017;SDS011;3549;42.162;24.726;2023-04-01T05:29:19;51.63;;;29.03;;
7017;SDS011;3549;42.162;24.726;2023-04-01T05:31:44;35.50;;;18.10;;
7017;SDS011;3549;42.162;24.726;2023-04-01T05:34:10;58.77;;;35.37;;
7017;SDS011;3549;42.162;24.726;2023-04-01T05:36:35;70.03;;;38.00;;
7017;SDS011;3549;42.162;24.726;2023-04-01T05:39:01;167.83;;;60.97;;
7017;SDS011;3549;42.162;24.726;2023-04-01T05:41:26;39.33;;;20.70;;
7017;SDS011;3549;42.162;24.726;2023-04-01T05:43:52;39.10;;;19.87;;
7017;SDS011;3549;42.162;24.726;2023-04-01T05:46:17;37.07;;;19.60;;
7017;SDS011;3549;42.162;24.726;2023-04-01T05:48:43;55.90;;;31.63;;
7017;SDS011;3549;42.162;24.726;2023-04-01T05:51:12;40.07;;;22.23;;
7017;SDS011;3549;42.162;24.726;2023-04-01T05:53:38;41.17;;;20.37;;
7017;SDS011;3549;42.162;24.726;2023-04-01T05:56:04;44.50;;;23.57;;
7017;SDS011;3549;42.162;24.726;2023-04-01T05:58:30;58.70;;;31.93;;
7017;SDS011;3549;42.162;24.726;2023-04-01T06:01:03;37.87;;;17.67;;
7017;SDS011;3549;42.162;24.726;2023-04-01T06:03:32;43.53;;;19.20;;
7017;SDS011;3549;42.162;24.726;2023-04-01T06:05:58;43.07;;;20.23;;
7017;SDS011;3549;42.162;24.726;2023-04-01T06:08:26;38.57;;;19.60;;
7017;SDS011;3549;42.162;24.726;2023-04-01T06:16:21;27.90;;;15.37;;
7017;SDS011;3549;42.162;24.726;2023-04-01T06:19:14;28.87;;;15.23;;
7017;SDS011;3549;42.162;24.726;2023-04-01T06:46:57;20.67;;;12.03;;
7017;SDS011;3549;42.162;24.726;2023-04-01T06:49:28;21.80;;;12.83;;
7017;SDS011;3549;42.162;24.726;2023-04-01T06:54:58;23.07;;;13.00;;
7017;SDS011;3549;42.162;24.726;2023-04-01T06:57:43;25.27;;;13.70;;
7017;SDS011;3549;42.162;24.726;2023-04-01T07:00:17;27.57;;;12.67;;
7017;SDS011;3549;42.162;24.726;2023-04-01T07:03:02;21.10;;;12.50;;
7017;SDS011;3549;42.162;24.726;2023-04-01T07:05:35;21.77;;;11.53;;
7017;SDS011;3549;42.162;24.726;2023-04-01T07:08:04;18.03;;;10.77;;
7017;SDS011;3549;42.162;24.726;2023-04-01T07:10:39;19.13;;;11.13;;
7017;SDS011;3549;42.162;24.726;2023-04-01T07:13:19;18.83;;;10.53;;
7017;SDS011;3549;42.162;24.726;2023-04-01T07:15:54;20.03;;;11.57;;
7017;SDS011;3549;42.162;24.726;2023-04-01T07:18:28;18.47;;;10.67;;
7017;SDS011;3549;42.162;24.726;2023-04-01T07:20:59;18.27;;;11.00;;
7017;SDS011;3549;42.162;24.726;2023-04-01T07:23:29;19.80;;;11.00;;
7017;SDS011;3549;42.162;24.726;2023-04-01T07:26:16;18.30;;;10.50;;
7017;SDS011;3549;42.162;24.726;2023-04-01T07:28:45;23.83;;;10.63;;
7017;SDS011;3549;42.162;24.726;2023-04-01T07:41:58;16.87;;;10.30;;
7017;SDS011;3549;42.162;24.726;2023-04-01T07:44:51;15.37;;;10.07;;
7017;SDS011;3549;42.162;24.726;2023-04-01T07:50:04;15.00;;;10.13;;
7017;SDS011;3549;42.162;24.726;2023-04-01T07:53:02;14.13;;;8.90;;
7017;SDS011;3549;42.162;24.726;2023-04-01T08:06:43;16.40;;;10.00;;
7017;SDS011;3549;42.162;24.726;2023-04-01T08:12:06;17.20;;;10.83;;
7017;SDS011;3549;42.162;24.726;2023-04-01T08:17:29;18.57;;;10.30;;
7017;SDS011;3549;42.162;24.726;2023-04-01T08:22:45;19.43;;;10.97;;
7017;SDS011;3549;42.162;24.726;2023-04-01T08:25:20;19.80;;;12.17;;
7017;SDS011;3549;42.162;24.726;2023-04-01T08:30:49;21.03;;;11.00;;
7017;SDS011;3549;42.162;24.726;2023-04-01T08:33:24;20.10;;;11.20;;
7017;SDS011;3549;42.162;24.726;2023-04-01T08:47:39;16.33;;;9.57;;
7017;SDS011;3549;42.162;24.726;2023-04-01T08:50:21;16.23;;;9.50;;
7017;SDS011;3549;42.162;24.726;2023-04-01T08:58:57;16.43;;;9.63;;
7017;SDS011;3549;42.162;24.726;2023-04-01T09:01:41;16.57;;;9.57;;
7017;SDS011;3549;42.162;24.726;2023-04-01T09:26:06;15.80;;;9.77;;
7017;SDS011;3549;42.162;24.726;2023-04-01T09:37:21;18.90;;;10.63;;
7017;SDS011;3549;42.162;24.726;2023-04-01T09:39:56;17.83;;;10.27;;
7017;SDS011;3549;42.162;24.726;2023-04-01T09:42:42;16.17;;;10.30;;
7017;SDS011;3549;42.162;24.726;2023-04-01T09:45:32;13.83;;;10.13;;
7017;SDS011;3549;42.162;24.726;2023-04-01T10:02:14;15.53;;;10.43;;
7017;SDS011;3549;42.162;24.726;2023-04-01T10:10:03;15.40;;;9.87;;
7017;SDS011;3549;42.162;24.726;2023-04-01T10:13:11;14.67;;;9.70;;
7017;SDS011;3549;42.162;24.726;2023-04-01T10:16:22;17.00;;;10.33;;
7017;SDS011;3549;42.162;24.726;2023-04-01T10:30:17;16.50;;;11.07;;
7017;SDS011;3549;42.162;24.726;2023-04-01T10:41:47;20.13;;;12.10;;
7017;SDS011;3549;42.162;24.726;2023-04-01T10:44:47;14.27;;;10.17;;
7017;SDS011;3549;42.162;24.726;2023-04-01T11:32:34;19.00;;;10.03;;
7017;SDS011;3549;42.162;24.726;2023-04-01T11:49:47;18.83;;;9.37;;
7017;SDS011;3549;42.162;24.726;2023-04-01T12:19:58;20.87;;;12.20;;
7017;SDS011;3549;42.162;24.726;2023-04-01T12:31:13;16.53;;;9.30;;
7017;SDS011;3549;42.162;24.726;2023-04-01T12:55:50;16.63;;;9.87;;
7017;SDS011;3549;42.162;24.726;2023-04-01T13:01:23;13.87;;;9.57;;
7017;SDS011;3549;42.162;24.726;2023-04-01T13:04:08;17.70;;;9.50;;
7017;SDS011;3549;42.162;24.726;2023-04-01T13:18:27;17.03;;;9.07;;
7017;SDS011;3549;42.162;24.726;2023-04-01T13:21:16;18.63;;;10.33;;
7017;SDS011;3549;42.162;24.726;2023-04-01T13:24:19;18.03;;;11.70;;
7017;SDS011;3549;42.162;24.726;2023-04-01T13:27:05;19.47;;;10.93;;
7017;SDS011;3549;42.162;24.726;2023-04-01T13:32:47;25.40;;;10.83;;
7017;SDS011;3549;42.162;24.726;2023-04-01T13:51:54;21.83;;;12.27;;
7017;SDS011;3549;42.162;24.726;2023-04-01T13:57:42;19.73;;;12.37;;
7017;SDS011;3549;42.162;24.726;2023-04-01T14:19:22;9.87;;;6.90;;
7017;SDS011;3549;42.162;24.726;2023-04-01T14:27:19;11.10;;;6.90;;
7017;SDS011;3549;42.162;24.726;2023-04-01T14:35:22;7.13;;;4.40;;
7017;SDS011;3549;42.162;24.726;2023-04-01T14:51:57;23.20;;;11.47;;
7017;SDS011;3549;42.162;24.726;2023-04-01T14:54:49;10.30;;;6.63;;
7017;SDS011;3549;42.162;24.726;2023-04-01T14:57:29;11.93;;;6.53;;
7017;SDS011;3549;42.162;24.726;2023-04-01T15:00:14;7.57;;;5.33;;
7017;SDS011;3549;42.162;24.726;2023-04-01T15:02:45;10.67;;;7.17;;
7017;SDS011;3549;42.162;24.726;2023-04-01T15:08:31;12.97;;;7.90;;
7017;SDS011;3549;42.162;24.726;2023-04-01T15:11:04;14.97;;;9.07;;
7017;SDS011;3549;42.162;24.726;2023-04-01T15:13:48;14.37;;;8.93;;
7017;SDS011;3549;42.162;24.726;2023-04-01T15:24:15;7.50;;;4.50;;
7017;SDS011;3549;42.162;24.726;2023-04-01T15:38:49;8.77;;;4.90;;
7017;SDS011;3549;42.162;24.726;2023-04-01T15:46:56;15.00;;;9.23;;
7017;SDS011;3549;42.162;24.726;2023-04-01T15:49:27;11.37;;;6.17;;
7017;SDS011;3549;42.162;24.726;2023-04-01T16:02:42;35.87;;;19.40;;
7017;SDS011;3549;42.162;24.726;2023-04-01T16:30:55;17.47;;;9.30;;
7017;SDS011;3549;42.162;24.726;2023-04-01T16:44:31;10.50;;;6.50;;
7017;SDS011;3549;42.162;24.726;2023-04-01T16:47:30;12.40;;;5.63;;
7017;SDS011;3549;42.162;24.726;2023-04-01T16:55:44;8.87;;;4.57;;
7017;SDS011;3549;42.162;24.726;2023-04-01T16:58:33;8.13;;;5.00;;
7017;SDS011;3549;42.162;24.726;2023-04-01T17:07:01;10.80;;;5.20;;
7017;SDS011;3549;42.162;24.726;2023-04-01T17:18:16;11.17;;;7.20;;
7017;SDS011;3549;42.162;24.726;2023-04-01T17:23:43;12.77;;;7.30;;
7017;SDS011;3549;42.162;24.726;2023-04-01T17:26:26;21.13;;;12.33;;
7017;SDS011;3549;42.162;24.726;2023-04-01T17:42:46;55.77;;;29.40;;
7017;SDS011;3549;42.162;24.726;2023-04-01T17:48:18;18.07;;;11.00;;
7017;SDS011;3549;42.162;24.726;2023-04-01T18:00:06;12.40;;;7.37;;
7017;SDS011;3549;42.162;24.726;2023-04-01T18:11:14;8.43;;;5.60;;
7017;SDS011;3549;42.162;24.726;2023-04-01T18:14:07;12.47;;;7.40;;
7017;SDS011;3549;42.162;24.726;2023-04-01T18:17:06;12.10;;;6.80;;
7017;SDS011;3549;42.162;24.726;2023-04-01T18:22:44;7.83;;;5.40;;
7017;SDS011;3549;42.162;24.726;2023-04-01T18:25:37;14.90;;;8.97;;
7017;SDS011;3549;42.162;24.726;2023-04-01T18:30:58;4.63;;;2.93;;
7017;SDS011;3549;42.162;24.726;2023-04-01T18:39:23;2.83;;;1.50;;
7017;SDS011;3549;42.162;24.726;2023-04-01T18:42:21;2.13;;;1.67;;
7017;SDS011;3549;42.162;24.726;2023-04-01T18:45:26;3.83;;;1.70;;
7017;SDS011;3549;42.162;24.726;2023-04-01T18:50:47;2.57;;;1.90;;
7017;SDS011;3549;42.162;24.726;2023-04-01T18:53:20;3.27;;;2.40;;
7017;SDS011;3549;42.162;24.726;2023-04-01T18:56:00;4.03;;;2.83;;
7017;SDS011;3549;42.162;24.726;2023-04-01T18:58:37;8.43;;;4.40;;
7017;SDS011;3549;42.162;24.726;2023-04-01T19:01:14;4.53;;;3.03;;
7017;SDS011;3549;42.162;24.726;2023-04-01T19:09:17;5.70;;;2.60;;
7017;SDS011;3549;42.162;24.726;2023-04-01T19:20:26;3.47;;;2.40;;
7017;SDS011;3549;42.162;24.726;2023-04-01T19:26:04;8.27;;;4.60;;
7017;SDS011;3549;42.162;24.726;2023-04-01T19:40:13;5.67;;;3.47;;
7017;SDS011;3549;42.162;24.726;2023-04-01T19:43:15;10.87;;;6.80;;
7017;SDS011;3549;42.162;24.726;2023-04-01T19:46:28;17.50;;;7.33;;
7017;SDS011;3549;42.162;24.726;2023-04-01T19:54:22;11.07;;;6.40;;
7017;SDS011;3549;42.162;24.726;2023-04-01T19:59:33;8.53;;;5.80;;
7017;SDS011;3549;42.162;24.726;2023-04-01T20:02:30;18.77;;;12.40;;
7017;SDS011;3549;42.162;24.726;2023-04-01T20:11:03;9.97;;;7.53;;
7017;SDS011;3549;42.162;24.726;2023-04-01T20:16:14;14.57;;;7.80;;
7017;SDS011;3549;42.162;24.726;2023-04-01T20:26:39;26.57;;;14.00;;
7017;SDS011;3549;42.162;24.726;2023-04-01T20:29:24;18.23;;;10.20;;
7017;SDS011;3549;42.162;24.726;2023-04-01T20:34:32;29.00;;;12.50;;
7017;SDS011;3549;42.162;24.726;2023-04-01T20:40:20;15.27;;;7.30;;
7017;SDS011;3549;42.162;24.726;2023-04-01T20:46:04;5.60;;;3.90;;
7017;SDS011;3549;42.162;24.726;2023-04-01T20:51:04;5.37;;;3.73;;
7017;SDS011;3549;42.162;24.726;2023-04-01T20:53:35;7.37;;;4.30;;
7017;SDS011;3549;42.162;24.726;2023-04-01T21:07:11;6.10;;;3.33;;
7017;SDS011;3549;42.162;24.726;2023-04-01T21:09:40;5.10;;;3.90;;
7017;SDS011;3549;42.162;24.726;2023-04-01T21:12:52;5.67;;;3.90;;
7017;SDS011;3549;42.162;24.726;2023-04-01T21:15:29;4.63;;;3.40;;
7017;SDS011;3549;42.162;24.726;2023-04-01T21:42:49;7.03;;;4.37;;
7017;SDS011;3549;42.162;24.726;2023-04-01T22:05:29;5.93;;;4.30;;
7017;SDS011;3549;42.162;24.726;2023-04-01T22:08:03;7.07;;;4.50;;
7017;SDS011;3549;42.162;24.726;2023-04-01T22:14:02;6.47;;;4.20;;
7017;SDS011;3549;42.162;24.726;2023-04-01T22:16:46;5.57;;;4.03;;
7017;SDS011;3549;42.162;24.726;2023-04-01T22:22:11;6.97;;;4.17;;
7017;SDS011;3549;42.162;24.726;2023-04-01T22:27:34;5.93;;;4.50;;
7017;SDS011;3549;42.162;24.726;2023-04-01T22:33:01;5.40;;;4.37;;
7017;SDS011;3549;42.162;24.726;2023-04-01T22:35:39;5.70;;;4.10;;
7017;SDS011;3549;42.162;24.726;2023-04-01T22:41:41;6.60;;;4.00;;
7017;SDS011;3549;42.162;24.726;2023-04-01T22:44:30;5.77;;;3.70;;
7017;SDS011;3549;42.162;24.726;2023-04-01T22:47:12;5.43;;;3.93;;
7017;SDS011;3549;42.162;24.726;2023-04-01T22:49:43;5.33;;;4.10;;
7017;SDS011;3549;42.162;24.726;2023-04-01T22:52:33;5.37;;;3.87;;
7017;SDS011;3549;42.162;24.726;2023-04-01T22:55:05;4.57;;;3.80;;
7017;SDS011;3549;42.162;24.726;2023-04-01T23:00:24;4.87;;;3.50;;
7017;SDS011;3549;42.162;24.726;2023-04-01T23:05:54;4.90;;;3.93;;
7017;SDS011;3549;42.162;24.726;2023-04-01T23:11:04;5.33;;;3.97;;
7017;SDS011;3549;42.162;24.726;2023-04-01T23:13:39;6.33;;;4.50;;
7017;SDS011;3549;42.162;24.726;2023-04-01T23:16:13;15.10;;;8.37;;
7017;SDS011;3549;42.162;24.726;2023-04-01T23:18:50;14.97;;;8.47;;
7017;SDS011;3549;42.162;24.726;2023-04-01T23:21:41;13.63;;;7.33;;
7017;SDS011;3549;42.162;24.726;2023-04-01T23:29:17;5.90;;;4.53;;
7017;SDS011;3549;42.162;24.726;2023-04-01T23:31:45;5.90;;;4.60;;
7017;SDS011;3549;42.162;24.726;2023-04-01T23:36:42;6.23;;;4.33;;
7017;SDS011;3549;42.162;24.726;2023-04-01T23:39:17;6.10;;;4.17;;
7017;SDS011;3549;42.162;24.726;2023-04-01T23:41:48;5.20;;;3.80;;
7017;SDS011;3549;42.162;24.726;2023-04-01T23:46:53;5.27;;;3.83;;
7017;SDS011;3549;42.162;24.726;2023-04-01T23:49:36;4.60;;;3.50;;
7017;SDS011;3549;42.162;24.726;2023-04-01T23:52:25;5.47;;;3.87;;
7017;SDS011;3549;42.162;24.726;2023-04-01T23:54:56;4.50;;;3.90;;
7017;SDS011;3549;42.162;24.726;2023-04-01T23:57:32;5.50;;;4.20;;
